createdAt,value
2023-03-16T00:01:53.569Z,2.64
2023-03-16T00:04:40.733Z,2.47
2023-03-16T00:07:27.624Z,2.55
2023-03-16T00:10:14.924Z,2.54
2023-03-16T00:13:02.837Z,2.52
2023-03-16T00:15:52.374Z,2.52
2023-03-16T00:18:41.269Z,2.53
2023-03-16T00:21:27.939Z,2.48
2023-03-16T00:24:18.192Z,2.54
2023-03-16T00:27:05.105Z,2.48
2023-03-16T00:29:56.036Z,2.45
2023-03-16T00:32:43.157Z,2.49
2023-03-16T00:35:34.795Z,2.41
2023-03-16T00:38:21.838Z,1.90
2023-03-16T00:41:09.337Z,2.45
2023-03-16T00:43:56.126Z,2.50
2023-03-16T00:46:42.904Z,2.41
2023-03-16T00:49:29.700Z,2.41
2023-03-16T00:52:17.833Z,2.37
2023-03-16T00:55:05.192Z,2.47
2023-03-16T00:57:52.040Z,2.35
2023-03-16T01:00:40.363Z,2.34
2023-03-16T01:03:27.057Z,2.35
2023-03-16T01:06:17.217Z,2.29
2023-03-16T01:09:06.834Z,2.23
2023-03-16T01:11:54.627Z,2.38
2023-03-16T01:14:42.467Z,2.09
2023-03-16T01:17:29.403Z,2.21
2023-03-16T01:20:19.467Z,2.17
2023-03-16T01:23:05.992Z,2.20
2023-03-16T01:25:54.989Z,2.22
2023-03-16T01:28:42.008Z,2.20
2023-03-16T01:31:29.416Z,2.21
2023-03-16T01:34:18.691Z,2.31
2023-03-16T01:37:05.791Z,2.27
2023-03-16T01:40:12.731Z,2.11
2023-03-16T01:43:06.214Z,2.02
2023-03-16T01:46:19.265Z,2.12
2023-03-16T01:49:10.900Z,2.07
2023-03-16T01:52:03.634Z,2.01
2023-03-16T01:54:56.252Z,1.93
2023-03-16T01:57:46.334Z,1.98
2023-03-16T02:00:34.966Z,2.07
2023-03-16T02:03:40.213Z,2.03
2023-03-16T02:06:36.820Z,2.07
2023-03-16T02:09:26.361Z,2.01
2023-03-16T02:12:18.554Z,2.05
2023-03-16T02:15:11.467Z,2.10
2023-03-16T02:18:00.832Z,2.12
2023-03-16T02:20:53.553Z,2.07
2023-03-16T02:23:44.310Z,2.05
2023-03-16T02:26:44.944Z,1.97
2023-03-16T02:29:54.279Z,2.21
2023-03-16T02:32:42.526Z,2.24
2023-03-16T02:35:28.999Z,2.09
2023-03-16T02:38:15.911Z,2.09
2023-03-16T02:41:14.253Z,1.92
2023-03-16T02:44:06.607Z,1.91
2023-03-16T02:47:01.410Z,1.95
2023-03-16T02:49:49.287Z,1.94
2023-03-16T02:52:36.332Z,1.92
2023-03-16T02:55:22.855Z,1.90
2023-03-16T02:58:09.986Z,1.98
2023-03-16T03:00:56.987Z,2.08
2023-03-16T03:03:45.096Z,2.05
2023-03-16T03:06:32.404Z,1.80
2023-03-16T03:09:19.702Z,1.76
2023-03-16T03:12:10.183Z,1.71
2023-03-16T03:14:57.385Z,1.64
2023-03-16T03:17:45.264Z,1.59
2023-03-16T03:20:33.817Z,1.54
2023-03-16T03:23:20.358Z,1.51
2023-03-16T03:26:07.702Z,1.51
2023-03-16T03:28:54.592Z,1.60
2023-03-16T03:31:41.492Z,1.49
2023-03-16T03:34:28.360Z,1.44
2023-03-16T03:37:16.502Z,1.68
2023-03-16T03:40:11.121Z,1.71
2023-03-16T03:42:59.232Z,1.69
2023-03-16T03:45:47.332Z,1.73
2023-03-16T03:48:34.889Z,1.71
2023-03-16T03:51:21.830Z,1.69
2023-03-16T03:54:36.362Z,1.70
2023-03-16T03:57:28.350Z,1.65
2023-03-16T04:00:16.128Z,1.63
2023-03-16T04:03:04.170Z,1.61
2023-03-16T04:05:57.640Z,1.61
2023-03-16T04:08:44.317Z,1.75
2023-03-16T04:11:39.039Z,1.79
2023-03-16T04:14:25.887Z,1.77
2023-03-16T04:17:13.623Z,1.92
2023-03-16T04:20:06.070Z,1.88
2023-03-16T04:22:58.580Z,1.74
2023-03-16T04:25:45.733Z,1.87
2023-03-16T04:28:36.432Z,1.83
2023-03-16T04:31:23.230Z,1.67
2023-03-16T04:34:10.199Z,1.52
2023-03-16T04:36:56.748Z,1.37
2023-03-16T04:39:43.418Z,1.29
2023-03-16T04:42:30.634Z,1.33
2023-03-16T04:45:19.100Z,1.22
2023-03-16T04:48:07.863Z,1.17
2023-03-16T04:50:54.840Z,1.16
2023-03-16T04:53:42.221Z,1.09
2023-03-16T04:56:35.611Z,1.25
2023-03-16T04:59:27.668Z,1.37
2023-03-16T05:02:25.584Z,1.15
2023-03-16T05:05:12.278Z,1.19
2023-03-16T05:08:03.357Z,1.14
2023-03-16T05:10:52.596Z,0.99
2023-03-16T05:13:39.389Z,0.96
2023-03-16T05:16:26.281Z,1.01
2023-03-16T05:19:14.416Z,1.03
2023-03-16T05:22:01.194Z,0.97
2023-03-16T05:24:47.801Z,1.05
2023-03-16T05:27:35.482Z,0.97
2023-03-16T05:30:24.695Z,1.02
2023-03-16T05:33:13.737Z,1.04
2023-03-16T05:36:03.168Z,0.99
2023-03-16T05:38:50.874Z,0.92
2023-03-16T05:41:46.060Z,0.93
2023-03-16T05:44:38.225Z,0.85
2023-03-16T05:47:38.938Z,0.91
2023-03-16T05:50:28.737Z,0.87
2023-03-16T05:53:17.086Z,0.92
2023-03-16T05:56:03.967Z,1.03
2023-03-16T05:58:54.122Z,0.91
2023-03-16T06:01:43.283Z,1.19
2023-03-16T06:04:30.095Z,1.24
2023-03-16T06:07:17.763Z,1.40
2023-03-16T06:10:08.249Z,1.51
2023-03-16T06:12:55.082Z,2.19
2023-03-16T06:15:42.203Z,2.53
2023-03-16T06:18:29.001Z,2.35
2023-03-16T06:21:16.335Z,2.11
2023-03-16T06:24:04.709Z,2.24
2023-03-16T06:26:53.298Z,2.22
2023-03-16T06:29:44.091Z,1.57
2023-03-16T06:32:30.899Z,2.29
2023-03-16T06:35:17.704Z,2.32
2023-03-16T06:38:13.225Z,2.43
2023-03-16T06:41:10.220Z,2.76
2023-03-16T06:43:58.494Z,3.03
2023-03-16T06:46:44.970Z,3.19
2023-03-16T06:49:31.802Z,3.24
2023-03-16T06:52:20.002Z,3.40
2023-03-16T06:55:07.824Z,3.40
2023-03-16T06:57:58.236Z,3.51
2023-03-16T07:00:46.532Z,3.53
2023-03-16T07:03:33.184Z,3.48
2023-03-16T07:06:26.655Z,3.50
2023-03-16T07:09:14.180Z,3.64
2023-03-16T07:12:01.449Z,3.80
2023-03-16T07:14:51.859Z,3.76
2023-03-16T07:17:43.798Z,3.66
2023-03-16T07:20:33.203Z,3.88
2023-03-16T07:23:24.500Z,3.85
2023-03-16T07:26:12.870Z,3.83
2023-03-16T07:29:10.081Z,4.13
2023-03-16T07:31:57.304Z,4.17
2023-03-16T07:34:52.373Z,4.40
2023-03-16T07:37:39.344Z,4.53
2023-03-16T07:40:27.665Z,4.30
2023-03-16T07:43:20.290Z,4.32
2023-03-16T07:46:10.735Z,4.60
2023-03-16T07:48:57.792Z,4.47
2023-03-16T07:51:46.324Z,4.79
2023-03-16T07:54:34.981Z,4.92
2023-03-16T07:57:23.974Z,5.15
2023-03-16T08:00:14.194Z,5.46
2023-03-16T08:03:03.123Z,5.87
2023-03-16T08:05:50.443Z,6.35
2023-03-16T08:08:40.280Z,6.88
2023-03-16T08:11:29.318Z,7.63
2023-03-16T08:14:19.122Z,8.52
2023-03-16T08:17:18.760Z,9.36
2023-03-16T08:20:10.711Z,9.92
2023-03-16T08:22:57.560Z,10.99
2023-03-16T08:25:49.181Z,11.60
2023-03-16T08:28:37.402Z,11.96
2023-03-16T08:31:28.941Z,12.31
2023-03-16T08:34:24.611Z,12.22
2023-03-16T08:37:11.743Z,12.10
2023-03-16T08:40:00.474Z,11.57
2023-03-16T08:42:50.926Z,10.84
2023-03-16T08:45:39.422Z,9.88
2023-03-16T08:48:26.654Z,9.89
2023-03-16T08:51:13.233Z,9.50
2023-03-16T08:54:00.765Z,9.58
2023-03-16T08:56:47.236Z,9.35
2023-03-16T08:59:35.330Z,9.14
2023-03-16T09:02:22.284Z,8.65
2023-03-16T09:05:11.197Z,8.64
2023-03-16T09:07:58.910Z,8.74
2023-03-16T09:10:46.899Z,8.06
2023-03-16T09:13:33.795Z,8.00
2023-03-16T09:16:25.727Z,8.31
2023-03-16T09:19:12.204Z,8.36
2023-03-16T09:21:59.282Z,8.37
2023-03-16T09:24:46.040Z,8.70
2023-03-16T09:27:33.177Z,8.90
2023-03-16T09:30:19.952Z,8.85
2023-03-16T09:33:07.947Z,8.31
2023-03-16T09:35:55.969Z,8.37
2023-03-16T09:38:43.919Z,8.60
2023-03-16T09:41:43.710Z,8.61
2023-03-16T09:44:40.463Z,8.77
2023-03-16T09:47:30.390Z,8.72
2023-03-16T09:50:28.197Z,8.93
2023-03-16T09:53:24.924Z,9.22
2023-03-16T09:56:15.626Z,9.22
2023-03-16T09:59:04.360Z,9.01
2023-03-16T10:02:05.073Z,9.13
2023-03-16T10:05:00.942Z,8.88
2023-03-16T10:08:02.090Z,8.58
2023-03-16T10:11:06.335Z,8.98
2023-03-16T10:13:57.835Z,9.35
2023-03-16T10:16:49.192Z,9.44
2023-03-16T10:19:42.178Z,9.69
2023-03-16T10:22:32.271Z,9.79
2023-03-16T10:25:24.400Z,9.70
2023-03-16T10:28:14.532Z,9.78
2023-03-16T10:31:04.310Z,9.97
2023-03-16T10:33:55.755Z,10.07
2023-03-16T10:36:45.257Z,10.15
2023-03-16T10:39:42.987Z,10.14
2023-03-16T10:42:30.811Z,10.22
2023-03-16T10:45:27.679Z,10.40
2023-03-16T10:48:16.114Z,10.62
2023-03-16T10:51:07.903Z,11.15
2023-03-16T10:53:54.945Z,11.85
2023-03-16T10:56:41.736Z,12.27
2023-03-16T10:59:34.416Z,11.80
2023-03-16T11:02:23.818Z,12.21
2023-03-16T11:05:16.049Z,11.94
2023-03-16T11:08:10.695Z,12.59
2023-03-16T11:10:59.224Z,12.28
2023-03-16T11:13:47.684Z,12.23
2023-03-16T11:16:40.290Z,12.07
2023-03-16T11:19:29.623Z,11.84
2023-03-16T11:22:19.047Z,11.77
2023-03-16T11:25:14.398Z,11.78
2023-03-16T11:28:13.620Z,11.53
2023-03-16T11:31:14.045Z,10.87
2023-03-16T11:34:02.926Z,10.98
2023-03-16T11:36:55.073Z,10.98
2023-03-16T11:39:54.319Z,10.80
2023-03-16T11:42:50.429Z,10.78
2023-03-16T11:45:45.737Z,11.16
2023-03-16T11:48:41.149Z,11.04
2023-03-16T11:51:48.868Z,11.09
2023-03-16T11:54:56.655Z,11.08
2023-03-16T11:57:54.848Z,11.24
2023-03-16T12:00:53.788Z,11.12
2023-03-16T12:03:58.533Z,11.02
2023-03-16T12:07:09.350Z,11.35
2023-03-16T12:10:10.902Z,11.47
2023-03-16T12:13:15.851Z,11.55
2023-03-16T12:16:06.822Z,11.28
2023-03-16T12:19:00.239Z,11.10
2023-03-16T12:21:50.543Z,11.42
2023-03-16T12:24:44.029Z,11.31
2023-03-16T12:27:34.481Z,11.41
2023-03-16T12:30:42.541Z,11.38
2023-03-16T12:33:40.946Z,11.48
2023-03-16T12:37:02.152Z,11.54
2023-03-16T12:40:21.153Z,11.70
2023-03-16T12:43:31.935Z,11.84
2023-03-16T12:46:29.060Z,11.79
2023-03-16T12:49:16.584Z,11.76
2023-03-16T12:52:05.426Z,11.73
2023-03-16T12:54:53.939Z,11.96
2023-03-16T12:57:43.984Z,11.72
2023-03-16T13:00:35.947Z,11.68
2023-03-16T13:03:24.526Z,11.92
2023-03-16T13:06:20.355Z,11.68
2023-03-16T13:09:07.816Z,11.67
2023-03-16T13:11:55.340Z,11.68
2023-03-16T13:14:45.322Z,11.77
2023-03-16T13:17:33.919Z,11.82
2023-03-16T13:20:31.794Z,11.72
2023-03-16T13:23:25.840Z,11.72
2023-03-16T13:26:16.608Z,11.84
2023-03-16T13:29:18.584Z,11.60
2023-03-16T13:32:19.565Z,11.57
2023-03-16T13:35:10.077Z,11.56
2023-03-16T13:38:05.759Z,11.45
2023-03-16T13:40:55.458Z,11.40
2023-03-16T13:43:44.514Z,11.43
2023-03-16T13:46:31.824Z,11.55
2023-03-16T13:49:20.001Z,11.36
2023-03-16T13:52:07.076Z,11.52
2023-03-16T13:54:55.060Z,11.45
2023-03-16T13:57:44.350Z,11.35
2023-03-16T14:00:34.702Z,11.43
2023-03-16T14:03:22.536Z,11.33
2023-03-16T14:06:23.013Z,11.25
2023-03-16T14:09:23.750Z,11.29
2023-03-16T14:12:15.870Z,11.32
2023-03-16T14:15:07.295Z,11.14
2023-03-16T14:17:54.624Z,11.47
2023-03-16T14:20:41.939Z,11.39
2023-03-16T14:23:35.838Z,11.40
2023-03-16T14:26:23.038Z,11.36
2023-03-16T14:29:19.544Z,11.37
2023-03-16T14:32:23.452Z,11.21
2023-03-16T14:35:16.549Z,10.97
2023-03-16T14:38:21.825Z,11.21
2023-03-16T14:41:23.005Z,11.27
2023-03-16T14:44:21.261Z,11.13
2023-03-16T14:47:08.517Z,11.30
2023-03-16T14:49:57.603Z,11.04
2023-03-16T14:52:45.876Z,11.02
2023-03-16T14:55:32.361Z,11.01
2023-03-16T14:58:20.522Z,11.01
2023-03-16T15:01:08.199Z,11.20
2023-03-16T15:03:54.706Z,11.16
2023-03-16T15:06:41.715Z,11.27
2023-03-16T15:09:38.332Z,11.31
2023-03-16T15:12:26.258Z,11.26
2023-03-16T15:15:16.765Z,11.23
2023-03-16T15:18:04.122Z,11.16
2023-03-16T15:20:53.779Z,11.19
2023-03-16T15:23:41.602Z,11.03
2023-03-16T15:26:30.736Z,10.88
2023-03-16T15:29:19.846Z,10.91
2023-03-16T15:32:14.567Z,10.88
2023-03-16T15:35:01.173Z,10.83
2023-03-16T15:37:48.657Z,10.78
2023-03-16T15:40:37.008Z,10.89
2023-03-16T15:43:27.297Z,10.79
2023-03-16T15:46:14.853Z,10.77
2023-03-16T15:49:02.951Z,10.59
2023-03-16T15:51:49.576Z,10.62
2023-03-16T15:54:37.814Z,10.59
2023-03-16T15:57:24.655Z,10.67
2023-03-16T16:00:29.940Z,10.48
2023-03-16T16:03:17.198Z,10.44
2023-03-16T16:06:10.212Z,10.36
2023-03-16T16:08:56.886Z,10.38
2023-03-16T16:11:43.925Z,10.38
2023-03-16T16:14:30.620Z,10.30
2023-03-16T16:17:35.913Z,10.20
2023-03-16T16:20:29.544Z,10.17
2023-03-16T16:23:18.171Z,10.16
2023-03-16T16:26:12.499Z,9.91
2023-03-16T16:28:59.693Z,9.86
2023-03-16T16:31:46.671Z,9.49
2023-03-16T16:34:33.387Z,9.44
2023-03-16T16:37:20.148Z,9.42
2023-03-16T16:40:09.337Z,9.27
2023-03-16T16:42:56.347Z,9.11
2023-03-16T16:45:43.195Z,8.85
2023-03-16T16:48:33.010Z,8.82
2023-03-16T16:51:23.344Z,8.70
2023-03-16T16:54:16.298Z,8.40
2023-03-16T16:57:05.152Z,8.16
2023-03-16T16:59:52.282Z,8.10
2023-03-16T17:02:46.267Z,8.17
2023-03-16T17:05:32.797Z,8.19
2023-03-16T17:08:19.997Z,8.09
2023-03-16T17:11:06.664Z,7.87
2023-03-16T17:13:55.710Z,7.87
2023-03-16T17:16:42.677Z,7.87
2023-03-16T17:19:29.553Z,7.72
2023-03-16T17:22:24.647Z,7.63
2023-03-16T17:25:11.560Z,7.71
2023-03-16T17:27:58.960Z,7.53
2023-03-16T17:30:49.193Z,7.44
2023-03-16T17:33:35.753Z,7.42
2023-03-16T17:36:22.943Z,7.31
2023-03-16T17:39:24.772Z,7.21
2023-03-16T17:42:18.565Z,7.11
2023-03-16T17:45:15.757Z,7.17
2023-03-16T17:48:05.308Z,7.06
2023-03-16T17:50:52.118Z,6.99
2023-03-16T17:53:39.885Z,6.89
2023-03-16T17:56:28.097Z,6.80
2023-03-16T17:59:17.594Z,6.77
2023-03-16T18:02:04.859Z,6.74
2023-03-16T18:04:53.245Z,6.65
2023-03-16T18:07:41.783Z,6.68
2023-03-16T18:10:31.521Z,6.67
2023-03-16T18:13:22.605Z,6.65
2023-03-16T18:16:10.285Z,6.67
2023-03-16T18:19:00.427Z,6.66
2023-03-16T18:21:51.299Z,6.52
2023-03-16T18:24:44.461Z,6.39
2023-03-16T18:27:35.694Z,6.26
2023-03-16T18:30:27.608Z,6.30
2023-03-16T18:33:28.682Z,6.14
2023-03-16T18:36:18.495Z,6.28
2023-03-16T18:39:08.182Z,6.35
2023-03-16T18:41:54.849Z,6.49
2023-03-16T18:44:41.429Z,6.58
2023-03-16T18:47:31.643Z,6.63
2023-03-16T18:50:22.860Z,6.61
2023-03-16T18:53:16.195Z,6.69
2023-03-16T18:56:04.450Z,6.80
2023-03-16T18:58:52.698Z,6.86
2023-03-16T19:01:42.223Z,6.99
2023-03-16T19:04:32.928Z,7.12
2023-03-16T19:07:26.691Z,7.14
2023-03-16T19:10:22.171Z,7.09
2023-03-16T19:13:19.226Z,7.10
2023-03-16T19:16:15.814Z,7.13
2023-03-16T19:19:02.568Z,7.17
2023-03-16T19:21:50.681Z,7.15
2023-03-16T19:24:45.028Z,7.24
2023-03-16T19:27:38.132Z,7.15
2023-03-16T19:30:29.285Z,7.17
2023-03-16T19:33:20.965Z,7.05
2023-03-16T19:36:15.678Z,7.10
2023-03-16T19:39:04.028Z,7.11
2023-03-16T19:42:26.054Z,7.10
2023-03-16T19:45:19.047Z,6.92
2023-03-16T19:48:14.193Z,6.84
2023-03-16T19:51:02.025Z,6.80
2023-03-16T19:53:49.817Z,6.88
2023-03-16T19:56:36.713Z,6.86
2023-03-16T19:59:27.026Z,6.77
2023-03-16T20:02:26.613Z,6.86
2023-03-16T20:05:19.751Z,6.82
2023-03-16T20:08:20.132Z,6.94
2023-03-16T20:11:11.074Z,7.11
2023-03-16T20:13:59.019Z,7.16
2023-03-16T20:16:47.336Z,7.26
2023-03-16T20:19:46.504Z,7.24
2023-03-16T20:22:41.508Z,7.31
2023-03-16T20:25:47.151Z,7.49
2023-03-16T20:28:42.452Z,7.53
2023-03-16T20:31:34.695Z,7.61
2023-03-16T20:34:26.664Z,7.62
2023-03-16T20:37:23.877Z,7.56
2023-03-16T20:40:12.935Z,7.65
2023-03-16T20:42:59.421Z,7.68
2023-03-16T20:45:46.235Z,7.72
2023-03-16T20:48:32.968Z,7.66
2023-03-16T20:51:19.606Z,7.72
2023-03-16T20:54:07.407Z,7.65
2023-03-16T20:56:55.879Z,7.69
2023-03-16T20:59:43.528Z,7.79
2023-03-16T21:02:34.116Z,7.71
2023-03-16T21:05:20.793Z,7.60
2023-03-16T21:08:08.292Z,7.68
2023-03-16T21:10:56.814Z,7.71
2023-03-16T21:13:44.594Z,7.67
2023-03-16T21:16:31.409Z,7.75
2023-03-16T21:19:21.138Z,7.73
2023-03-16T21:22:26.098Z,7.75
2023-03-16T21:25:20.728Z,7.80
2023-03-16T21:28:07.321Z,7.87
2023-03-16T21:30:57.583Z,7.85
2023-03-16T21:33:44.547Z,7.84
2023-03-16T21:36:31.231Z,7.76
2023-03-16T21:39:22.590Z,7.67
2023-03-16T21:42:09.427Z,7.69
2023-03-16T21:44:56.304Z,7.73
2023-03-16T21:47:45.376Z,7.40
2023-03-16T21:50:35.711Z,7.61
2023-03-16T21:53:27.453Z,7.57
2023-03-16T21:56:17.064Z,7.41
2023-03-16T21:59:04.100Z,7.40
2023-03-16T22:02:01.136Z,7.37
2023-03-16T22:04:51.142Z,7.31
2023-03-16T22:07:37.708Z,7.31
2023-03-16T22:10:26.081Z,7.18
2023-03-16T22:13:13.287Z,6.84
2023-03-16T22:15:59.916Z,7.04
2023-03-16T22:18:48.351Z,6.90
2023-03-16T22:21:38.207Z,6.92
2023-03-16T22:24:29.068Z,6.95
2023-03-16T22:27:18.939Z,7.08
2023-03-16T22:30:07.203Z,7.04
2023-03-16T22:32:58.083Z,7.24
2023-03-16T22:35:45.041Z,7.10
2023-03-16T22:38:35.138Z,7.25
2023-03-16T22:41:23.281Z,7.40
2023-03-16T22:44:19.076Z,7.36
2023-03-16T22:47:13.732Z,7.35
2023-03-16T22:50:01.289Z,7.22
2023-03-16T22:52:51.190Z,7.16
2023-03-16T22:55:41.371Z,7.12
2023-03-16T22:58:33.817Z,7.07
2023-03-16T23:01:23.222Z,7.03
2023-03-16T23:04:15.585Z,7.00
2023-03-16T23:07:02.431Z,7.04
2023-03-16T23:09:49.375Z,7.09
2023-03-16T23:12:38.701Z,6.97
2023-03-16T23:15:27.873Z,6.95
2023-03-16T23:18:19.769Z,6.89
2023-03-16T23:21:06.970Z,6.85
2023-03-16T23:24:03.620Z,6.83
2023-03-16T23:26:52.101Z,6.71
2023-03-16T23:29:41.193Z,6.72
2023-03-16T23:32:27.865Z,6.79
2023-03-16T23:35:18.228Z,6.80
2023-03-16T23:38:05.045Z,6.76
2023-03-16T23:40:51.857Z,6.78
2023-03-16T23:43:41.695Z,6.66
2023-03-16T23:46:30.783Z,6.71
2023-03-16T23:49:21.614Z,6.68
2023-03-16T23:52:08.368Z,6.56
2023-03-16T23:55:13.224Z,6.50
2023-03-16T23:58:02.906Z,6.52
